Portsmouth, North Carolina
Current Conditions -  °F | °C
As of 11:51 AM on Thursday 30 Oct 2014 (Local Time) from KHSE Reporting Station
Broken Clouds Broken Clouds  
Wind Chill: 64°   Ceiling: 2600
Heat Index: 64°   Visibility: 10mi
Dew Point: 55°   Wind: 9mph
Humidity: 72%   Direction: 30°NNE
Pressure: 29.98"   Gusts: 20mph
Location:  35.1144°N, 75.9815°W
Report Text: KHSE 301551Z AUTO 03008G17KT 360V070 10SM BKN026 BKN040 18/13 A2998 RMK AO2 SLP153 T01780128 TSNO
Loading
Personal Weather Stations






























Interactive Weather Map
Tropical Storm Tracking
New forecast layout! Learn more

10-Day Weather Forecast

Advertisements
Track Severe Weather on mobile